sensor_id;sensor_type;location;lat;lon;timestamp;P1;durP1;ratioP1;P2;durP2;ratioP2
9950;SDS011;24074;49.254;6.702;2023-07-31T00:00:06;6.40;;;2.67;;
9950;SDS011;24074;49.254;6.702;2023-07-31T00:02:33;6.53;;;2.60;;
9950;SDS011;24074;49.254;6.702;2023-07-31T00:04:59;4.73;;;2.43;;
9950;SDS011;24074;49.254;6.702;2023-07-31T00:07:25;5.30;;;2.50;;
9950;SDS011;24074;49.254;6.702;2023-07-31T00:09:51;5.33;;;2.60;;
9950;SDS011;24074;49.254;6.702;2023-07-31T00:12:18;3.63;;;2.30;;
9950;SDS011;24074;49.254;6.702;2023-07-31T00:14:44;5.07;;;2.60;;
9950;SDS011;24074;49.254;6.702;2023-07-31T00:17:10;4.90;;;2.47;;
9950;SDS011;24074;49.254;6.702;2023-07-31T00:19:36;5.17;;;2.67;;
9950;SDS011;24074;49.254;6.702;2023-07-31T00:22:01;12.10;;;2.83;;
9950;SDS011;24074;49.254;6.702;2023-07-31T00:24:27;4.17;;;2.40;;
9950;SDS011;24074;49.254;6.702;2023-07-31T00:26:53;4.97;;;2.90;;
9950;SDS011;24074;49.254;6.702;2023-07-31T00:29:18;4.23;;;2.63;;
9950;SDS011;24074;49.254;6.702;2023-07-31T00:31:44;4.60;;;2.77;;
9950;SDS011;24074;49.254;6.702;2023-07-31T00:34:09;5.43;;;2.70;;
9950;SDS011;24074;49.254;6.702;2023-07-31T00:36:35;6.67;;;2.70;;
9950;SDS011;24074;49.254;6.702;2023-07-31T00:39:00;10.40;;;2.70;;
9950;SDS011;24074;49.254;6.702;2023-07-31T00:41:26;4.93;;;2.67;;
9950;SDS011;24074;49.254;6.702;2023-07-31T00:43:52;4.57;;;2.20;;
9950;SDS011;24074;49.254;6.702;2023-07-31T00:46:17;7.23;;;2.70;;
9950;SDS011;24074;49.254;6.702;2023-07-31T00:48:43;6.43;;;2.97;;
9950;SDS011;24074;49.254;6.702;2023-07-31T00:51:09;3.83;;;2.17;;
9950;SDS011;24074;49.254;6.702;2023-07-31T00:53:35;5.70;;;2.50;;
9950;SDS011;24074;49.254;6.702;2023-07-31T00:56:01;4.83;;;2.63;;
9950;SDS011;24074;49.254;6.702;2023-07-31T00:58:27;6.27;;;2.70;;
9950;SDS011;24074;49.254;6.702;2023-07-31T01:00:52;4.37;;;2.50;;
9950;SDS011;24074;49.254;6.702;2023-07-31T01:03:18;5.93;;;2.50;;
9950;SDS011;24074;49.254;6.702;2023-07-31T01:11:38;4.67;;;2.53;;
9950;SDS011;24074;49.254;6.702;2023-07-31T01:14:11;7.03;;;2.70;;
9950;SDS011;24074;49.254;6.702;2023-07-31T01:16:37;4.87;;;2.60;;
9950;SDS011;24074;49.254;6.702;2023-07-31T01:19:02;5.53;;;2.53;;
9950;SDS011;24074;49.254;6.702;2023-07-31T01:26:33;4.00;;;2.60;;
9950;SDS011;24074;49.254;6.702;2023-07-31T01:31:37;8.37;;;3.00;;
9950;SDS011;24074;49.254;6.702;2023-07-31T01:34:04;3.90;;;2.27;;
9950;SDS011;24074;49.254;6.702;2023-07-31T01:36:33;8.37;;;3.03;;
9950;SDS011;24074;49.254;6.702;2023-07-31T01:38:59;3.57;;;2.30;;
9950;SDS011;24074;49.254;6.702;2023-07-31T01:41:26;4.60;;;2.70;;
9950;SDS011;24074;49.254;6.702;2023-07-31T01:43:52;4.80;;;2.60;;
9950;SDS011;24074;49.254;6.702;2023-07-31T01:46:17;7.33;;;2.80;;
9950;SDS011;24074;49.254;6.702;2023-07-31T01:48:43;5.23;;;2.40;;
9950;SDS011;24074;49.254;6.702;2023-07-31T01:51:08;6.33;;;2.60;;
9950;SDS011;24074;49.254;6.702;2023-07-31T01:53:37;3.90;;;2.53;;
9950;SDS011;24074;49.254;6.702;2023-07-31T01:56:02;4.50;;;2.60;;
9950;SDS011;24074;49.254;6.702;2023-07-31T01:58:28;5.23;;;2.40;;
9950;SDS011;24074;49.254;6.702;2023-07-31T02:00:54;5.17;;;2.50;;
9950;SDS011;24074;49.254;6.702;2023-07-31T02:03:19;5.77;;;2.50;;
9950;SDS011;24074;49.254;6.702;2023-07-31T02:05:45;5.60;;;2.50;;
9950;SDS011;24074;49.254;6.702;2023-07-31T02:08:11;7.33;;;2.60;;
9950;SDS011;24074;49.254;6.702;2023-07-31T02:10:37;6.63;;;2.70;;
9950;SDS011;24074;49.254;6.702;2023-07-31T02:13:03;5.77;;;2.47;;
9950;SDS011;24074;49.254;6.702;2023-07-31T02:15:29;6.17;;;2.70;;
9950;SDS011;24074;49.254;6.702;2023-07-31T02:17:55;4.87;;;2.63;;
9950;SDS011;24074;49.254;6.702;2023-07-31T02:20:20;5.87;;;2.40;;
9950;SDS011;24074;49.254;6.702;2023-07-31T02:22:46;6.83;;;3.03;;
9950;SDS011;24074;49.254;6.702;2023-07-31T02:25:12;6.67;;;2.60;;
9950;SDS011;24074;49.254;6.702;2023-07-31T02:27:37;6.63;;;2.60;;
9950;SDS011;24074;49.254;6.702;2023-07-31T02:30:03;5.60;;;2.60;;
9950;SDS011;24074;49.254;6.702;2023-07-31T02:32:28;4.30;;;2.63;;
9950;SDS011;24074;49.254;6.702;2023-07-31T02:34:54;4.43;;;2.67;;
9950;SDS011;24074;49.254;6.702;2023-07-31T02:37:20;5.20;;;2.57;;
9950;SDS011;24074;49.254;6.702;2023-07-31T02:39:45;6.80;;;2.97;;
9950;SDS011;24074;49.254;6.702;2023-07-31T02:42:11;5.93;;;3.17;;
9950;SDS011;24074;49.254;6.702;2023-07-31T02:44:37;6.57;;;2.90;;
9950;SDS011;24074;49.254;6.702;2023-07-31T02:47:03;3.83;;;2.47;;
9950;SDS011;24074;49.254;6.702;2023-07-31T02:49:28;5.37;;;2.63;;
9950;SDS011;24074;49.254;6.702;2023-07-31T02:51:54;6.20;;;2.97;;
9950;SDS011;24074;49.254;6.702;2023-07-31T02:54:20;8.07;;;3.10;;
9950;SDS011;24074;49.254;6.702;2023-07-31T02:56:46;4.33;;;2.53;;
9950;SDS011;24074;49.254;6.702;2023-07-31T02:59:12;10.10;;;3.30;;
9950;SDS011;24074;49.254;6.702;2023-07-31T03:01:38;4.83;;;2.77;;
9950;SDS011;24074;49.254;6.702;2023-07-31T03:04:04;5.47;;;2.63;;
9950;SDS011;24074;49.254;6.702;2023-07-31T03:06:29;8.10;;;3.10;;
9950;SDS011;24074;49.254;6.702;2023-07-31T03:08:55;5.87;;;2.70;;
9950;SDS011;24074;49.254;6.702;2023-07-31T03:11:20;7.40;;;2.97;;
9950;SDS011;24074;49.254;6.702;2023-07-31T03:13:46;5.50;;;2.90;;
9950;SDS011;24074;49.254;6.702;2023-07-31T03:16:12;6.23;;;2.70;;
9950;SDS011;24074;49.254;6.702;2023-07-31T03:18:37;6.67;;;3.00;;
9950;SDS011;24074;49.254;6.702;2023-07-31T03:21:03;6.10;;;2.90;;
9950;SDS011;24074;49.254;6.702;2023-07-31T03:23:29;6.90;;;2.67;;
9950;SDS011;24074;49.254;6.702;2023-07-31T03:25:59;6.47;;;2.80;;
9950;SDS011;24074;49.254;6.702;2023-07-31T03:28:26;6.23;;;2.93;;
9950;SDS011;24074;49.254;6.702;2023-07-31T03:30:52;5.67;;;2.80;;
9950;SDS011;24074;49.254;6.702;2023-07-31T03:33:17;5.90;;;3.10;;
9950;SDS011;24074;49.254;6.702;2023-07-31T03:35:43;5.57;;;2.80;;
9950;SDS011;24074;49.254;6.702;2023-07-31T03:38:09;12.93;;;2.87;;
9950;SDS011;24074;49.254;6.702;2023-07-31T03:40:35;5.43;;;2.63;;
9950;SDS011;24074;49.254;6.702;2023-07-31T03:43:00;9.20;;;3.00;;
9950;SDS011;24074;49.254;6.702;2023-07-31T03:45:26;4.50;;;3.00;;
9950;SDS011;24074;49.254;6.702;2023-07-31T03:47:51;11.43;;;3.33;;
9950;SDS011;24074;49.254;6.702;2023-07-31T03:50:17;7.57;;;2.87;;
9950;SDS011;24074;49.254;6.702;2023-07-31T03:52:42;7.43;;;2.77;;
9950;SDS011;24074;49.254;6.702;2023-07-31T03:55:08;4.97;;;2.73;;
9950;SDS011;24074;49.254;6.702;2023-07-31T03:57:34;6.23;;;2.90;;
9950;SDS011;24074;49.254;6.702;2023-07-31T03:59:59;6.90;;;2.70;;
9950;SDS011;24074;49.254;6.702;2023-07-31T04:02:25;7.03;;;3.03;;
9950;SDS011;24074;49.254;6.702;2023-07-31T04:04:50;5.67;;;2.50;;
9950;SDS011;24074;49.254;6.702;2023-07-31T04:07:16;7.43;;;2.93;;
9950;SDS011;24074;49.254;6.702;2023-07-31T04:09:41;5.77;;;2.93;;
9950;SDS011;24074;49.254;6.702;2023-07-31T04:12:07;10.13;;;3.43;;
9950;SDS011;24074;49.254;6.702;2023-07-31T04:14:33;4.60;;;2.53;;
9950;SDS011;24074;49.254;6.702;2023-07-31T04:16:58;9.07;;;3.03;;
9950;SDS011;24074;49.254;6.702;2023-07-31T04:19:24;7.23;;;2.90;;
9950;SDS011;24074;49.254;6.702;2023-07-31T04:21:49;8.03;;;2.90;;
9950;SDS011;24074;49.254;6.702;2023-07-31T04:24:15;5.93;;;2.87;;
9950;SDS011;24074;49.254;6.702;2023-07-31T04:26:41;4.47;;;3.00;;
9950;SDS011;24074;49.254;6.702;2023-07-31T04:29:06;8.23;;;3.20;;
9950;SDS011;24074;49.254;6.702;2023-07-31T04:31:33;6.33;;;3.17;;
9950;SDS011;24074;49.254;6.702;2023-07-31T04:33:58;6.00;;;2.70;;
9950;SDS011;24074;49.254;6.702;2023-07-31T04:36:24;7.30;;;2.87;;
9950;SDS011;24074;49.254;6.702;2023-07-31T04:38:49;6.10;;;2.80;;
9950;SDS011;24074;49.254;6.702;2023-07-31T04:41:15;5.33;;;2.53;;
9950;SDS011;24074;49.254;6.702;2023-07-31T04:43:41;6.77;;;2.87;;
9950;SDS011;24074;49.254;6.702;2023-07-31T04:46:06;5.27;;;2.67;;
9950;SDS011;24074;49.254;6.702;2023-07-31T04:48:32;9.00;;;2.93;;
9950;SDS011;24074;49.254;6.702;2023-07-31T04:50:57;5.73;;;2.60;;
9950;SDS011;24074;49.254;6.702;2023-07-31T04:53:23;3.80;;;2.40;;
9950;SDS011;24074;49.254;6.702;2023-07-31T04:55:48;3.93;;;2.80;;
9950;SDS011;24074;49.254;6.702;2023-07-31T04:58:14;5.70;;;3.00;;
9950;SDS011;24074;49.254;6.702;2023-07-31T05:00:40;5.43;;;2.47;;
9950;SDS011;24074;49.254;6.702;2023-07-31T05:03:05;6.00;;;2.33;;
9950;SDS011;24074;49.254;6.702;2023-07-31T05:05:31;4.17;;;2.73;;
9950;SDS011;24074;49.254;6.702;2023-07-31T05:07:57;4.37;;;2.47;;
9950;SDS011;24074;49.254;6.702;2023-07-31T05:10:23;3.90;;;2.07;;
9950;SDS011;24074;49.254;6.702;2023-07-31T05:12:48;5.33;;;2.40;;
9950;SDS011;24074;49.254;6.702;2023-07-31T05:15:14;6.03;;;2.53;;
9950;SDS011;24074;49.254;6.702;2023-07-31T05:17:39;3.83;;;2.27;;
9950;SDS011;24074;49.254;6.702;2023-07-31T05:20:05;4.53;;;2.70;;
9950;SDS011;24074;49.254;6.702;2023-07-31T05:22:31;5.97;;;2.90;;
9950;SDS011;24074;49.254;6.702;2023-07-31T05:24:57;4.67;;;2.67;;
9950;SDS011;24074;49.254;6.702;2023-07-31T05:27:22;4.57;;;2.40;;
9950;SDS011;24074;49.254;6.702;2023-07-31T05:29:48;5.27;;;2.60;;
9950;SDS011;24074;49.254;6.702;2023-07-31T05:32:13;5.63;;;2.50;;
9950;SDS011;24074;49.254;6.702;2023-07-31T05:34:39;4.97;;;2.80;;
9950;SDS011;24074;49.254;6.702;2023-07-31T05:37:05;5.00;;;2.27;;
9950;SDS011;24074;49.254;6.702;2023-07-31T05:39:31;3.57;;;2.30;;
9950;SDS011;24074;49.254;6.702;2023-07-31T05:41:56;6.03;;;2.53;;
9950;SDS011;24074;49.254;6.702;2023-07-31T05:44:22;5.97;;;2.67;;
9950;SDS011;24074;49.254;6.702;2023-07-31T05:46:47;4.60;;;2.90;;
9950;SDS011;24074;49.254;6.702;2023-07-31T05:49:13;4.63;;;2.33;;
9950;SDS011;24074;49.254;6.702;2023-07-31T05:51:38;3.40;;;2.70;;
9950;SDS011;24074;49.254;6.702;2023-07-31T05:54:04;7.20;;;2.93;;
9950;SDS011;24074;49.254;6.702;2023-07-31T05:56:29;4.77;;;2.70;;
9950;SDS011;24074;49.254;6.702;2023-07-31T05:58:56;7.77;;;2.90;;
9950;SDS011;24074;49.254;6.702;2023-07-31T06:01:22;4.93;;;2.70;;
9950;SDS011;24074;49.254;6.702;2023-07-31T06:03:48;3.80;;;2.40;;
9950;SDS011;24074;49.254;6.702;2023-07-31T06:06:13;4.17;;;2.43;;
9950;SDS011;24074;49.254;6.702;2023-07-31T06:08:39;3.10;;;2.10;;
9950;SDS011;24074;49.254;6.702;2023-07-31T06:11:05;3.67;;;2.40;;
9950;SDS011;24074;49.254;6.702;2023-07-31T06:13:30;4.53;;;2.53;;
9950;SDS011;24074;49.254;6.702;2023-07-31T06:15:56;5.03;;;2.70;;
9950;SDS011;24074;49.254;6.702;2023-07-31T06:18:22;5.20;;;2.33;;
9950;SDS011;24074;49.254;6.702;2023-07-31T06:20:47;5.03;;;2.50;;
9950;SDS011;24074;49.254;6.702;2023-07-31T06:23:18;5.03;;;2.73;;
9950;SDS011;24074;49.254;6.702;2023-07-31T06:25:44;8.60;;;2.90;;
9950;SDS011;24074;49.254;6.702;2023-07-31T06:28:09;5.40;;;2.70;;
9950;SDS011;24074;49.254;6.702;2023-07-31T06:30:35;5.57;;;2.60;;
9950;SDS011;24074;49.254;6.702;2023-07-31T06:33:01;4.13;;;2.20;;
9950;SDS011;24074;49.254;6.702;2023-07-31T06:35:26;4.10;;;2.20;;
9950;SDS011;24074;49.254;6.702;2023-07-31T06:37:52;4.70;;;2.40;;
9950;SDS011;24074;49.254;6.702;2023-07-31T06:40:17;3.50;;;2.30;;
9950;SDS011;24074;49.254;6.702;2023-07-31T06:42:44;6.37;;;2.43;;
9950;SDS011;24074;49.254;6.702;2023-07-31T06:45:10;6.17;;;2.77;;
9950;SDS011;24074;49.254;6.702;2023-07-31T06:47:35;4.57;;;2.10;;
9950;SDS011;24074;49.254;6.702;2023-07-31T06:50:01;4.37;;;2.30;;
9950;SDS011;24074;49.254;6.702;2023-07-31T06:52:26;5.47;;;2.83;;
9950;SDS011;24074;49.254;6.702;2023-07-31T06:57:44;5.53;;;2.70;;
9950;SDS011;24074;49.254;6.702;2023-07-31T07:00:10;3.70;;;2.23;;
9950;SDS011;24074;49.254;6.702;2023-07-31T07:02:36;4.27;;;2.30;;
9950;SDS011;24074;49.254;6.702;2023-07-31T07:05:01;5.33;;;2.83;;
9950;SDS011;24074;49.254;6.702;2023-07-31T07:07:27;6.93;;;2.77;;
9950;SDS011;24074;49.254;6.702;2023-07-31T07:09:53;6.30;;;2.70;;
9950;SDS011;24074;49.254;6.702;2023-07-31T07:12:18;4.27;;;2.40;;
9950;SDS011;24074;49.254;6.702;2023-07-31T07:14:44;3.87;;;2.43;;
9950;SDS011;24074;49.254;6.702;2023-07-31T07:17:12;6.13;;;2.57;;
9950;SDS011;24074;49.254;6.702;2023-07-31T07:19:40;6.57;;;2.80;;
9950;SDS011;24074;49.254;6.702;2023-07-31T07:22:06;5.57;;;2.43;;
9950;SDS011;24074;49.254;6.702;2023-07-31T07:24:32;3.97;;;2.27;;
9950;SDS011;24074;49.254;6.702;2023-07-31T07:26:57;4.67;;;2.50;;
9950;SDS011;24074;49.254;6.702;2023-07-31T07:29:23;3.67;;;2.43;;
9950;SDS011;24074;49.254;6.702;2023-07-31T07:31:48;4.80;;;2.40;;
9950;SDS011;24074;49.254;6.702;2023-07-31T07:34:14;4.30;;;2.73;;
9950;SDS011;24074;49.254;6.702;2023-07-31T07:36:40;4.83;;;2.53;;
9950;SDS011;24074;49.254;6.702;2023-07-31T07:39:05;4.70;;;2.40;;
9950;SDS011;24074;49.254;6.702;2023-07-31T07:41:31;4.03;;;2.37;;
9950;SDS011;24074;49.254;6.702;2023-07-31T07:43:56;4.40;;;2.70;;
9950;SDS011;24074;49.254;6.702;2023-07-31T07:46:22;5.90;;;2.77;;
9950;SDS011;24074;49.254;6.702;2023-07-31T07:48:48;6.00;;;2.63;;
9950;SDS011;24074;49.254;6.702;2023-07-31T07:51:13;3.57;;;2.50;;
9950;SDS011;24074;49.254;6.702;2023-07-31T07:53:39;4.43;;;2.73;;
9950;SDS011;24074;49.254;6.702;2023-07-31T07:56:04;3.83;;;2.40;;
9950;SDS011;24074;49.254;6.702;2023-07-31T07:58:30;5.60;;;2.33;;
9950;SDS011;24074;49.254;6.702;2023-07-31T08:00:55;6.00;;;2.60;;
9950;SDS011;24074;49.254;6.702;2023-07-31T08:03:21;3.77;;;2.67;;
9950;SDS011;24074;49.254;6.702;2023-07-31T08:05:47;5.60;;;2.50;;
9950;SDS011;24074;49.254;6.702;2023-07-31T08:08:14;7.07;;;2.57;;
9950;SDS011;24074;49.254;6.702;2023-07-31T08:10:41;5.80;;;2.40;;
9950;SDS011;24074;49.254;6.702;2023-07-31T08:13:07;3.93;;;2.37;;
9950;SDS011;24074;49.254;6.702;2023-07-31T08:15:32;8.67;;;2.77;;
9950;SDS011;24074;49.254;6.702;2023-07-31T08:17:58;7.20;;;2.70;;
9950;SDS011;24074;49.254;6.702;2023-07-31T08:20:23;7.07;;;2.70;;
9950;SDS011;24074;49.254;6.702;2023-07-31T08:22:49;5.80;;;2.93;;
9950;SDS011;24074;49.254;6.702;2023-07-31T08:25:14;5.73;;;2.40;;
9950;SDS011;24074;49.254;6.702;2023-07-31T08:27:43;4.20;;;2.28;;
9950;SDS011;24074;49.254;6.702;2023-07-31T08:30:09;3.83;;;2.30;;
9950;SDS011;24074;49.254;6.702;2023-07-31T08:32:36;3.78;;;2.60;;
9950;SDS011;24074;49.254;6.702;2023-07-31T08:35:02;6.05;;;2.33;;
9950;SDS011;24074;49.254;6.702;2023-07-31T08:37:28;7.15;;;2.38;;
9950;SDS011;24074;49.254;6.702;2023-07-31T08:39:53;4.65;;;2.47;;
9950;SDS011;24074;49.254;6.702;2023-07-31T08:42:19;4.65;;;2.30;;
9950;SDS011;24074;49.254;6.702;2023-07-31T08:44:45;4.53;;;2.50;;
9950;SDS011;24074;49.254;6.702;2023-07-31T08:47:12;4.45;;;2.63;;
9950;SDS011;24074;49.254;6.702;2023-07-31T08:49:38;6.05;;;2.78;;
9950;SDS011;24074;49.254;6.702;2023-07-31T08:52:06;5.32;;;2.83;;
9950;SDS011;24074;49.254;6.702;2023-07-31T08:54:31;4.18;;;2.65;;
9950;SDS011;24074;49.254;6.702;2023-07-31T08:56:58;8.23;;;2.60;;
9950;SDS011;24074;49.254;6.702;2023-07-31T08:59:26;4.38;;;2.60;;
9950;SDS011;24074;49.254;6.702;2023-07-31T09:01:54;5.00;;;2.40;;
9950;SDS011;24074;49.254;6.702;2023-07-31T09:04:22;4.93;;;2.33;;
9950;SDS011;24074;49.254;6.702;2023-07-31T09:06:49;4.75;;;2.58;;
9950;SDS011;24074;49.254;6.702;2023-07-31T09:09:19;3.88;;;2.70;;
9950;SDS011;24074;49.254;6.702;2023-07-31T09:11:45;5.80;;;2.50;;
9950;SDS011;24074;49.254;6.702;2023-07-31T09:14:11;6.57;;;2.58;;
9950;SDS011;24074;49.254;6.702;2023-07-31T09:16:52;6.32;;;2.85;;
9950;SDS011;24074;49.254;6.702;2023-07-31T09:19:35;5.30;;;2.35;;
9950;SDS011;24074;49.254;6.702;2023-07-31T09:22:05;5.68;;;2.80;;
9950;SDS011;24074;49.254;6.702;2023-07-31T09:24:32;5.03;;;2.60;;
9950;SDS011;24074;49.254;6.702;2023-07-31T09:26:59;5.72;;;2.92;;
9950;SDS011;24074;49.254;6.702;2023-07-31T09:29:26;4.65;;;2.72;;
9950;SDS011;24074;49.254;6.702;2023-07-31T09:31:53;4.35;;;2.90;;
9950;SDS011;24074;49.254;6.702;2023-07-31T09:34:20;5.43;;;2.60;;
9950;SDS011;24074;49.254;6.702;2023-07-31T09:36:53;4.87;;;2.90;;
9950;SDS011;24074;49.254;6.702;2023-07-31T09:39:19;4.10;;;3.10;;
9950;SDS011;24074;49.254;6.702;2023-07-31T09:41:53;5.50;;;2.90;;
9950;SDS011;24074;49.254;6.702;2023-07-31T09:44:20;5.97;;;2.93;;
9950;SDS011;24074;49.254;6.702;2023-07-31T09:46:46;5.73;;;2.80;;
9950;SDS011;24074;49.254;6.702;2023-07-31T09:49:12;4.47;;;2.77;;
9950;SDS011;24074;49.254;6.702;2023-07-31T09:51:40;5.70;;;2.70;;
9950;SDS011;24074;49.254;6.702;2023-07-31T09:54:10;5.70;;;2.70;;
9950;SDS011;24074;49.254;6.702;2023-07-31T09:56:42;6.50;;;3.23;;
9950;SDS011;24074;49.254;6.702;2023-07-31T09:59:14;4.17;;;2.90;;
9950;SDS011;24074;49.254;6.702;2023-07-31T10:01:41;5.77;;;2.87;;
9950;SDS011;24074;49.254;6.702;2023-07-31T10:04:09;5.70;;;3.00;;
9950;SDS011;24074;49.254;6.702;2023-07-31T10:06:37;4.13;;;2.60;;
9950;SDS011;24074;49.254;6.702;2023-07-31T10:09:07;4.93;;;2.77;;
9950;SDS011;24074;49.254;6.702;2023-07-31T10:11:41;4.97;;;3.00;;
9950;SDS011;24074;49.254;6.702;2023-07-31T10:14:09;6.00;;;2.80;;
9950;SDS011;24074;49.254;6.702;2023-07-31T10:16:37;8.37;;;3.27;;
9950;SDS011;24074;49.254;6.702;2023-07-31T10:19:03;6.43;;;2.80;;
9950;SDS011;24074;49.254;6.702;2023-07-31T10:21:31;4.70;;;2.60;;
9950;SDS011;24074;49.254;6.702;2023-07-31T10:24:00;7.60;;;3.10;;
9950;SDS011;24074;49.254;6.702;2023-07-31T10:26:28;6.07;;;2.87;;
9950;SDS011;24074;49.254;6.702;2023-07-31T10:28:55;5.23;;;3.20;;
9950;SDS011;24074;49.254;6.702;2023-07-31T10:31:22;4.50;;;3.00;;
9950;SDS011;24074;49.254;6.702;2023-07-31T10:33:49;6.53;;;3.03;;
9950;SDS011;24074;49.254;6.702;2023-07-31T10:36:20;6.03;;;2.90;;
9950;SDS011;24074;49.254;6.702;2023-07-31T10:38:46;6.77;;;2.80;;
9950;SDS011;24074;49.254;6.702;2023-07-31T10:41:14;5.53;;;2.87;;
9950;SDS011;24074;49.254;6.702;2023-07-31T10:43:40;5.80;;;2.67;;
9950;SDS011;24074;49.254;6.702;2023-07-31T10:46:09;6.43;;;3.20;;
9950;SDS011;24074;49.254;6.702;2023-07-31T10:48:38;5.50;;;2.97;;
9950;SDS011;24074;49.254;6.702;2023-07-31T10:51:10;5.83;;;3.30;;
9950;SDS011;24074;49.254;6.702;2023-07-31T10:53:37;5.77;;;2.90;;
9950;SDS011;24074;49.254;6.702;2023-07-31T10:56:09;4.50;;;2.50;;
9950;SDS011;24074;49.254;6.702;2023-07-31T10:58:40;3.90;;;2.90;;
9950;SDS011;24074;49.254;6.702;2023-07-31T11:01:09;5.43;;;3.00;;
9950;SDS011;24074;49.254;6.702;2023-07-31T11:06:11;7.23;;;2.80;;
9950;SDS011;24074;49.254;6.702;2023-07-31T11:08:41;4.80;;;2.60;;
9950;SDS011;24074;49.254;6.702;2023-07-31T11:11:10;5.50;;;3.07;;
9950;SDS011;24074;49.254;6.702;2023-07-31T11:13:43;8.27;;;3.00;;
9950;SDS011;24074;49.254;6.702;2023-07-31T11:16:10;4.50;;;2.80;;
9950;SDS011;24074;49.254;6.702;2023-07-31T11:18:38;5.37;;;3.47;;
9950;SDS011;24074;49.254;6.702;2023-07-31T11:21:05;5.90;;;2.80;;
9950;SDS011;24074;49.254;6.702;2023-07-31T11:23:31;5.03;;;3.17;;
9950;SDS011;24074;49.254;6.702;2023-07-31T11:26:00;4.37;;;2.73;;
9950;SDS011;24074;49.254;6.702;2023-07-31T11:28:30;5.43;;;2.67;;
9950;SDS011;24074;49.254;6.702;2023-07-31T11:30:58;7.77;;;2.70;;
9950;SDS011;24074;49.254;6.702;2023-07-31T11:33:23;4.23;;;2.30;;
9950;SDS011;24074;49.254;6.702;2023-07-31T11:35:51;3.93;;;2.40;;
9950;SDS011;24074;49.254;6.702;2023-07-31T11:38:21;3.20;;;2.00;;
9950;SDS011;24074;49.254;6.702;2023-07-31T11:40:51;2.47;;;1.80;;
9950;SDS011;24074;49.254;6.702;2023-07-31T11:43:18;3.37;;;2.00;;
9950;SDS011;24074;49.254;6.702;2023-07-31T11:45:50;3.77;;;1.97;;
9950;SDS011;24074;49.254;6.702;2023-07-31T11:48:20;2.80;;;1.90;;
9950;SDS011;24074;49.254;6.702;2023-07-31T11:50:55;4.10;;;1.73;;
9950;SDS011;24074;49.254;6.702;2023-07-31T11:53:27;2.80;;;2.00;;
9950;SDS011;24074;49.254;6.702;2023-07-31T11:55:58;2.67;;;2.20;;
9950;SDS011;24074;49.254;6.702;2023-07-31T11:58:25;3.70;;;2.13;;
9950;SDS011;24074;49.254;6.702;2023-07-31T12:00:51;3.50;;;1.97;;
9950;SDS011;24074;49.254;6.702;2023-07-31T12:03:17;2.37;;;1.90;;
9950;SDS011;24074;49.254;6.702;2023-07-31T12:05:43;2.30;;;1.73;;
9950;SDS011;24074;49.254;6.702;2023-07-31T12:08:12;2.30;;;2.10;;
9950;SDS011;24074;49.254;6.702;2023-07-31T12:10:38;2.47;;;1.60;;
9950;SDS011;24074;49.254;6.702;2023-07-31T12:13:09;2.50;;;1.80;;
9950;SDS011;24074;49.254;6.702;2023-07-31T12:15:41;3.70;;;1.80;;
9950;SDS011;24074;49.254;6.702;2023-07-31T12:18:12;3.00;;;1.70;;
9950;SDS011;24074;49.254;6.702;2023-07-31T12:20:45;4.57;;;2.33;;
9950;SDS011;24074;49.254;6.702;2023-07-31T12:23:23;2.97;;;1.80;;
9950;SDS011;24074;49.254;6.702;2023-07-31T12:26:33;5.23;;;1.90;;
9950;SDS011;24074;49.254;6.702;2023-07-31T12:31:12;4.50;;;2.00;;
9950;SDS011;24074;49.254;6.702;2023-07-31T12:33:40;3.83;;;2.20;;
9950;SDS011;24074;49.254;6.702;2023-07-31T12:36:08;4.13;;;2.60;;
9950;SDS011;24074;49.254;6.702;2023-07-31T12:38:35;3.73;;;1.80;;
9950;SDS011;24074;49.254;6.702;2023-07-31T12:41:01;3.47;;;2.10;;
9950;SDS011;24074;49.254;6.702;2023-07-31T12:43:26;3.40;;;2.00;;
9950;SDS011;24074;49.254;6.702;2023-07-31T12:45:54;3.87;;;2.30;;
9950;SDS011;24074;49.254;6.702;2023-07-31T12:48:21;3.80;;;2.10;;
9950;SDS011;24074;49.254;6.702;2023-07-31T12:50:46;4.07;;;2.10;;
9950;SDS011;24074;49.254;6.702;2023-07-31T12:53:12;3.63;;;2.13;;
9950;SDS011;24074;49.254;6.702;2023-07-31T12:55:37;2.83;;;1.90;;
9950;SDS011;24074;49.254;6.702;2023-07-31T12:58:03;3.10;;;1.90;;
9950;SDS011;24074;49.254;6.702;2023-07-31T13:00:29;2.80;;;1.87;;
9950;SDS011;24074;49.254;6.702;2023-07-31T13:02:55;3.47;;;2.17;;
9950;SDS011;24074;49.254;6.702;2023-07-31T13:05:20;3.30;;;2.03;;
9950;SDS011;24074;49.254;6.702;2023-07-31T13:07:46;4.28;;;1.80;;
9950;SDS011;24074;49.254;6.702;2023-07-31T13:10:12;2.63;;;1.88;;
9950;SDS011;24074;49.254;6.702;2023-07-31T13:12:38;3.13;;;1.88;;
9950;SDS011;24074;49.254;6.702;2023-07-31T13:15:07;2.40;;;2.20;;
9950;SDS011;24074;49.254;6.702;2023-07-31T13:17:33;4.38;;;2.30;;
9950;SDS011;24074;49.254;6.702;2023-07-31T13:20:02;3.30;;;2.08;;
9950;SDS011;24074;49.254;6.702;2023-07-31T13:22:28;3.22;;;2.13;;
9950;SDS011;24074;49.254;6.702;2023-07-31T13:24:54;2.30;;;1.88;;
9950;SDS011;24074;49.254;6.702;2023-07-31T13:27:20;3.67;;;2.08;;
9950;SDS011;24074;49.254;6.702;2023-07-31T13:29:47;3.60;;;1.92;;
9950;SDS011;24074;49.254;6.702;2023-07-31T13:32:16;4.25;;;2.10;;
9950;SDS011;24074;49.254;6.702;2023-07-31T13:34:43;3.85;;;2.25;;
9950;SDS011;24074;49.254;6.702;2023-07-31T13:37:09;2.10;;;1.77;;
9950;SDS011;24074;49.254;6.702;2023-07-31T13:39:35;3.15;;;2.00;;
9950;SDS011;24074;49.254;6.702;2023-07-31T13:42:01;2.75;;;1.88;;
9950;SDS011;24074;49.254;6.702;2023-07-31T13:44:28;3.17;;;2.10;;
9950;SDS011;24074;49.254;6.702;2023-07-31T13:46:53;3.03;;;2.03;;
9950;SDS011;24074;49.254;6.702;2023-07-31T13:49:19;3.88;;;2.00;;
9950;SDS011;24074;49.254;6.702;2023-07-31T13:51:45;3.47;;;2.17;;
9950;SDS011;24074;49.254;6.702;2023-07-31T13:54:11;3.70;;;2.20;;
9950;SDS011;24074;49.254;6.702;2023-07-31T13:56:37;3.75;;;2.17;;
9950;SDS011;24074;49.254;6.702;2023-07-31T13:59:03;3.63;;;2.35;;
9950;SDS011;24074;49.254;6.702;2023-07-31T14:01:29;4.65;;;2.28;;
9950;SDS011;24074;49.254;6.702;2023-07-31T14:03:55;3.38;;;2.30;;
9950;SDS011;24074;49.254;6.702;2023-07-31T14:06:20;3.03;;;2.13;;
9950;SDS011;24074;49.254;6.702;2023-07-31T14:08:46;5.00;;;2.13;;
9950;SDS011;24074;49.254;6.702;2023-07-31T14:11:11;3.77;;;2.07;;
9950;SDS011;24074;49.254;6.702;2023-07-31T14:13:37;4.43;;;2.30;;
9950;SDS011;24074;49.254;6.702;2023-07-31T14:16:02;3.97;;;2.23;;
9950;SDS011;24074;49.254;6.702;2023-07-31T14:18:28;2.80;;;2.37;;
9950;SDS011;24074;49.254;6.702;2023-07-31T14:20:57;4.10;;;2.77;;
9950;SDS011;24074;49.254;6.702;2023-07-31T14:23:23;4.53;;;2.40;;
9950;SDS011;24074;49.254;6.702;2023-07-31T14:25:49;3.73;;;2.30;;
9950;SDS011;24074;49.254;6.702;2023-07-31T14:28:14;4.63;;;2.37;;
9950;SDS011;24074;49.254;6.702;2023-07-31T14:30:40;5.47;;;2.40;;
9950;SDS011;24074;49.254;6.702;2023-07-31T14:33:05;6.13;;;2.30;;
9950;SDS011;24074;49.254;6.702;2023-07-31T14:35:31;3.67;;;2.43;;
9950;SDS011;24074;49.254;6.702;2023-07-31T14:37:57;2.80;;;2.33;;
9950;SDS011;24074;49.254;6.702;2023-07-31T14:40:22;4.73;;;2.50;;
9950;SDS011;24074;49.254;6.702;2023-07-31T14:42:48;5.03;;;2.33;;
9950;SDS011;24074;49.254;6.702;2023-07-31T14:45:13;4.07;;;2.13;;
9950;SDS011;24074;49.254;6.702;2023-07-31T14:47:39;4.87;;;2.50;;
9950;SDS011;24074;49.254;6.702;2023-07-31T14:50:05;3.10;;;2.10;;
9950;SDS011;24074;49.254;6.702;2023-07-31T14:52:31;3.03;;;2.20;;
9950;SDS011;24074;49.254;6.702;2023-07-31T14:54:56;4.10;;;2.20;;
9950;SDS011;24074;49.254;6.702;2023-07-31T14:57:22;4.80;;;2.60;;
9950;SDS011;24074;49.254;6.702;2023-07-31T14:59:50;3.37;;;2.40;;
9950;SDS011;24074;49.254;6.702;2023-07-31T15:02:16;5.37;;;2.60;;
9950;SDS011;24074;49.254;6.702;2023-07-31T15:04:41;3.60;;;2.43;;
9950;SDS011;24074;49.254;6.702;2023-07-31T15:07:07;4.97;;;2.67;;
9950;SDS011;24074;49.254;6.702;2023-07-31T15:09:33;4.17;;;2.30;;
9950;SDS011;24074;49.254;6.702;2023-07-31T15:11:58;3.67;;;2.23;;
9950;SDS011;24074;49.254;6.702;2023-07-31T15:14:24;2.83;;;2.37;;
9950;SDS011;24074;49.254;6.702;2023-07-31T15:16:52;3.87;;;2.20;;